sensor_id;sensor_type;location;lat;lon;timestamp;P1;durP1;ratioP1;P2;durP2;ratioP2
28627;SDS011;15815;46.760;19.604;2023-12-20T00:00:05;61.88;;;23.60;;
28627;SDS011;15815;46.760;19.604;2023-12-20T00:02:31;72.45;;;22.92;;
28627;SDS011;15815;46.760;19.604;2023-12-20T00:04:56;57.40;;;23.45;;
28627;SDS011;15815;46.760;19.604;2023-12-20T00:07:22;56.58;;;21.92;;
28627;SDS011;15815;46.760;19.604;2023-12-20T00:09:47;61.25;;;23.55;;
28627;SDS011;15815;46.760;19.604;2023-12-20T00:12:13;52.65;;;21.65;;
28627;SDS011;15815;46.760;19.604;2023-12-20T00:14:38;60.13;;;22.75;;
28627;SDS011;15815;46.760;19.604;2023-12-20T00:17:04;86.63;;;26.25;;
28627;SDS011;15815;46.760;19.604;2023-12-20T00:19:29;64.30;;;25.52;;
28627;SDS011;15815;46.760;19.604;2023-12-20T00:21:55;64.75;;;24.95;;
28627;SDS011;15815;46.760;19.604;2023-12-20T00:24:20;57.80;;;24.77;;
28627;SDS011;15815;46.760;19.604;2023-12-20T00:26:46;60.00;;;24.80;;
28627;SDS011;15815;46.760;19.604;2023-12-20T00:29:12;80.78;;;24.30;;
28627;SDS011;15815;46.760;19.604;2023-12-20T00:31:38;61.90;;;23.63;;
28627;SDS011;15815;46.760;19.604;2023-12-20T00:34:03;60.70;;;23.17;;
28627;SDS011;15815;46.760;19.604;2023-12-20T00:36:30;68.38;;;24.63;;
28627;SDS011;15815;46.760;19.604;2023-12-20T00:38:56;59.63;;;24.75;;
28627;SDS011;15815;46.760;19.604;2023-12-20T00:41:21;72.20;;;25.33;;
28627;SDS011;15815;46.760;19.604;2023-12-20T00:43:47;58.95;;;21.73;;
28627;SDS011;15815;46.760;19.604;2023-12-20T00:46:12;73.05;;;22.90;;
28627;SDS011;15815;46.760;19.604;2023-12-20T00:48:38;78.28;;;24.90;;
28627;SDS011;15815;46.760;19.604;2023-12-20T00:51:03;61.40;;;24.55;;
28627;SDS011;15815;46.760;19.604;2023-12-20T00:53:29;57.72;;;23.92;;
28627;SDS011;15815;46.760;19.604;2023-12-20T00:55:54;60.85;;;25.25;;
28627;SDS011;15815;46.760;19.604;2023-12-20T00:58:21;66.63;;;24.65;;
28627;SDS011;15815;46.760;19.604;2023-12-20T01:00:50;72.20;;;25.90;;
28627;SDS011;15815;46.760;19.604;2023-12-20T01:03:15;73.20;;;25.77;;
28627;SDS011;15815;46.760;19.604;2023-12-20T01:05:41;60.50;;;24.92;;
28627;SDS011;15815;46.760;19.604;2023-12-20T01:08:06;73.32;;;24.48;;
28627;SDS011;15815;46.760;19.604;2023-12-20T01:10:35;54.55;;;23.95;;
28627;SDS011;15815;46.760;19.604;2023-12-20T01:13:00;66.07;;;20.88;;
28627;SDS011;15815;46.760;19.604;2023-12-20T01:15:26;66.20;;;24.73;;
28627;SDS011;15815;46.760;19.604;2023-12-20T01:17:51;72.80;;;24.70;;
28627;SDS011;15815;46.760;19.604;2023-12-20T01:20:19;68.05;;;25.33;;
28627;SDS011;15815;46.760;19.604;2023-12-20T01:22:45;68.55;;;24.50;;
28627;SDS011;15815;46.760;19.604;2023-12-20T01:25:10;56.45;;;22.92;;
28627;SDS011;15815;46.760;19.604;2023-12-20T01:27:36;65.35;;;25.20;;
28627;SDS011;15815;46.760;19.604;2023-12-20T01:30:01;69.68;;;25.33;;
28627;SDS011;15815;46.760;19.604;2023-12-20T01:32:27;56.97;;;23.15;;
28627;SDS011;15815;46.760;19.604;2023-12-20T01:34:52;85.00;;;24.08;;
28627;SDS011;15815;46.760;19.604;2023-12-20T01:37:18;67.97;;;24.13;;
28627;SDS011;15815;46.760;19.604;2023-12-20T01:39:43;63.22;;;24.80;;
28627;SDS011;15815;46.760;19.604;2023-12-20T01:42:09;73.05;;;24.80;;
28627;SDS011;15815;46.760;19.604;2023-12-20T01:44:34;73.00;;;24.25;;
28627;SDS011;15815;46.760;19.604;2023-12-20T01:47:00;57.03;;;23.95;;
28627;SDS011;15815;46.760;19.604;2023-12-20T01:49:30;63.33;;;23.42;;
28627;SDS011;15815;46.760;19.604;2023-12-20T01:51:56;58.25;;;23.92;;
28627;SDS011;15815;46.760;19.604;2023-12-20T01:54:22;64.25;;;23.67;;
28627;SDS011;15815;46.760;19.604;2023-12-20T01:56:48;63.13;;;21.60;;
28627;SDS011;15815;46.760;19.604;2023-12-20T01:59:15;66.22;;;23.73;;
28627;SDS011;15815;46.760;19.604;2023-12-20T02:01:44;75.78;;;20.88;;
28627;SDS011;15815;46.760;19.604;2023-12-20T02:04:10;64.85;;;20.95;;
28627;SDS011;15815;46.760;19.604;2023-12-20T02:06:36;54.00;;;20.20;;
28627;SDS011;15815;46.760;19.604;2023-12-20T02:09:14;56.80;;;20.45;;
28627;SDS011;15815;46.760;19.604;2023-12-20T02:11:44;56.05;;;19.85;;
28627;SDS011;15815;46.760;19.604;2023-12-20T02:14:10;56.08;;;17.90;;
28627;SDS011;15815;46.760;19.604;2023-12-20T02:16:37;50.88;;;20.63;;
28627;SDS011;15815;46.760;19.604;2023-12-20T02:19:03;65.47;;;20.92;;
28627;SDS011;15815;46.760;19.604;2023-12-20T02:21:34;45.20;;;20.55;;
28627;SDS011;15815;46.760;19.604;2023-12-20T02:24:02;61.53;;;21.75;;
28627;SDS011;15815;46.760;19.604;2023-12-20T02:26:28;63.30;;;21.10;;
28627;SDS011;15815;46.760;19.604;2023-12-20T02:28:54;54.55;;;20.33;;
28627;SDS011;15815;46.760;19.604;2023-12-20T02:31:23;65.00;;;19.48;;
28627;SDS011;15815;46.760;19.604;2023-12-20T02:33:48;63.00;;;19.77;;
28627;SDS011;15815;46.760;19.604;2023-12-20T02:36:14;54.97;;;20.13;;
28627;SDS011;15815;46.760;19.604;2023-12-20T02:38:39;53.83;;;17.98;;
28627;SDS011;15815;46.760;19.604;2023-12-20T02:41:05;50.33;;;19.98;;
28627;SDS011;15815;46.760;19.604;2023-12-20T02:43:30;65.50;;;22.02;;
28627;SDS011;15815;46.760;19.604;2023-12-20T02:45:56;54.83;;;21.35;;
28627;SDS011;15815;46.760;19.604;2023-12-20T02:48:22;55.60;;;20.70;;
28627;SDS011;15815;46.760;19.604;2023-12-20T02:50:53;52.97;;;19.00;;
28627;SDS011;15815;46.760;19.604;2023-12-20T02:53:19;57.72;;;18.58;;
28627;SDS011;15815;46.760;19.604;2023-12-20T02:55:45;52.97;;;20.25;;
28627;SDS011;15815;46.760;19.604;2023-12-20T02:58:11;46.50;;;19.90;;
28627;SDS011;15815;46.760;19.604;2023-12-20T03:00:36;56.83;;;20.35;;
28627;SDS011;15815;46.760;19.604;2023-12-20T03:03:02;53.80;;;20.17;;
28627;SDS011;15815;46.760;19.604;2023-12-20T03:05:27;58.78;;;18.90;;
28627;SDS011;15815;46.760;19.604;2023-12-20T03:07:53;63.38;;;19.55;;
28627;SDS011;15815;46.760;19.604;2023-12-20T03:10:18;51.92;;;20.70;;
28627;SDS011;15815;46.760;19.604;2023-12-20T03:12:45;55.13;;;18.73;;
28627;SDS011;15815;46.760;19.604;2023-12-20T03:15:10;55.03;;;19.23;;
28627;SDS011;15815;46.760;19.604;2023-12-20T03:17:36;49.28;;;20.27;;
28627;SDS011;15815;46.760;19.604;2023-12-20T03:20:01;63.90;;;20.27;;
28627;SDS011;15815;46.760;19.604;2023-12-20T03:22:28;51.53;;;18.85;;
28627;SDS011;15815;46.760;19.604;2023-12-20T03:24:54;55.20;;;17.95;;
28627;SDS011;15815;46.760;19.604;2023-12-20T03:27:19;48.38;;;18.27;;
28627;SDS011;15815;46.760;19.604;2023-12-20T03:29:45;48.63;;;19.52;;
28627;SDS011;15815;46.760;19.604;2023-12-20T03:32:10;55.55;;;19.17;;
28627;SDS011;15815;46.760;19.604;2023-12-20T03:34:36;49.22;;;19.80;;
28627;SDS011;15815;46.760;19.604;2023-12-20T03:37:01;56.97;;;18.73;;
28627;SDS011;15815;46.760;19.604;2023-12-20T03:39:27;46.90;;;18.02;;
28627;SDS011;15815;46.760;19.604;2023-12-20T03:41:53;51.85;;;19.15;;
28627;SDS011;15815;46.760;19.604;2023-12-20T03:44:18;44.78;;;18.83;;
28627;SDS011;15815;46.760;19.604;2023-12-20T03:46:44;45.92;;;17.17;;
28627;SDS011;15815;46.760;19.604;2023-12-20T03:49:09;48.50;;;18.90;;
28627;SDS011;15815;46.760;19.604;2023-12-20T03:51:35;58.65;;;18.50;;
28627;SDS011;15815;46.760;19.604;2023-12-20T03:54:00;50.83;;;18.20;;
28627;SDS011;15815;46.760;19.604;2023-12-20T03:56:26;49.63;;;18.95;;
28627;SDS011;15815;46.760;19.604;2023-12-20T03:58:51;51.78;;;18.77;;
28627;SDS011;15815;46.760;19.604;2023-12-20T04:01:16;45.05;;;17.98;;
28627;SDS011;15815;46.760;19.604;2023-12-20T04:03:43;40.33;;;16.70;;
28627;SDS011;15815;46.760;19.604;2023-12-20T04:06:08;45.42;;;16.77;;
28627;SDS011;15815;46.760;19.604;2023-12-20T04:08:34;45.63;;;17.08;;
28627;SDS011;15815;46.760;19.604;2023-12-20T04:10:59;50.97;;;16.65;;
28627;SDS011;15815;46.760;19.604;2023-12-20T04:13:25;38.65;;;17.17;;
28627;SDS011;15815;46.760;19.604;2023-12-20T04:15:50;38.83;;;16.65;;
28627;SDS011;15815;46.760;19.604;2023-12-20T04:18:17;44.38;;;16.35;;
28627;SDS011;15815;46.760;19.604;2023-12-20T04:20:42;50.95;;;20.00;;
28627;SDS011;15815;46.760;19.604;2023-12-20T04:23:08;56.10;;;17.13;;
28627;SDS011;15815;46.760;19.604;2023-12-20T04:25:36;43.92;;;16.85;;
28627;SDS011;15815;46.760;19.604;2023-12-20T04:28:02;46.97;;;19.08;;
28627;SDS011;15815;46.760;19.604;2023-12-20T04:30:28;37.67;;;18.00;;
28627;SDS011;15815;46.760;19.604;2023-12-20T04:32:54;52.25;;;17.77;;
28627;SDS011;15815;46.760;19.604;2023-12-20T04:35:20;49.75;;;16.70;;
28627;SDS011;15815;46.760;19.604;2023-12-20T04:37:45;38.83;;;16.88;;
28627;SDS011;15815;46.760;19.604;2023-12-20T04:40:11;40.88;;;17.27;;
28627;SDS011;15815;46.760;19.604;2023-12-20T04:42:36;45.70;;;20.05;;
28627;SDS011;15815;46.760;19.604;2023-12-20T04:45:02;47.90;;;18.05;;
28627;SDS011;15815;46.760;19.604;2023-12-20T04:47:27;50.88;;;17.10;;
28627;SDS011;15815;46.760;19.604;2023-12-20T04:49:53;43.20;;;17.40;;
28627;SDS011;15815;46.760;19.604;2023-12-20T04:52:18;49.75;;;17.90;;
28627;SDS011;15815;46.760;19.604;2023-12-20T04:54:45;55.17;;;18.77;;
28627;SDS011;15815;46.760;19.604;2023-12-20T04:57:10;53.38;;;18.23;;
28627;SDS011;15815;46.760;19.604;2023-12-20T04:59:36;42.67;;;18.35;;
28627;SDS011;15815;46.760;19.604;2023-12-20T05:02:01;43.00;;;17.10;;
28627;SDS011;15815;46.760;19.604;2023-12-20T05:04:27;51.38;;;18.05;;
28627;SDS011;15815;46.760;19.604;2023-12-20T05:06:56;54.78;;;18.17;;
28627;SDS011;15815;46.760;19.604;2023-12-20T05:09:21;43.03;;;16.70;;
28627;SDS011;15815;46.760;19.604;2023-12-20T05:11:47;46.58;;;16.83;;
28627;SDS011;15815;46.760;19.604;2023-12-20T05:14:13;50.28;;;17.42;;
28627;SDS011;15815;46.760;19.604;2023-12-20T05:16:42;51.58;;;17.13;;
28627;SDS011;15815;46.760;19.604;2023-12-20T05:19:08;53.15;;;18.30;;
28627;SDS011;15815;46.760;19.604;2023-12-20T05:21:33;46.33;;;17.00;;
28627;SDS011;15815;46.760;19.604;2023-12-20T05:23:59;42.40;;;16.92;;
28627;SDS011;15815;46.760;19.604;2023-12-20T05:26:24;41.85;;;17.00;;
28627;SDS011;15815;46.760;19.604;2023-12-20T05:28:50;47.88;;;17.60;;
28627;SDS011;15815;46.760;19.604;2023-12-20T05:31:16;51.35;;;18.27;;
28627;SDS011;15815;46.760;19.604;2023-12-20T05:33:42;61.42;;;21.30;;
28627;SDS011;15815;46.760;19.604;2023-12-20T05:36:07;44.88;;;19.90;;
28627;SDS011;15815;46.760;19.604;2023-12-20T05:38:33;49.60;;;18.58;;
28627;SDS011;15815;46.760;19.604;2023-12-20T05:40:59;52.42;;;20.83;;
28627;SDS011;15815;46.760;19.604;2023-12-20T05:43:24;49.28;;;19.67;;
28627;SDS011;15815;46.760;19.604;2023-12-20T05:45:50;40.63;;;19.20;;
28627;SDS011;15815;46.760;19.604;2023-12-20T05:48:15;54.20;;;18.85;;
28627;SDS011;15815;46.760;19.604;2023-12-20T05:50:41;52.47;;;17.52;;
28627;SDS011;15815;46.760;19.604;2023-12-20T05:53:06;45.53;;;16.63;;
28627;SDS011;15815;46.760;19.604;2023-12-20T05:55:32;41.13;;;17.52;;
28627;SDS011;15815;46.760;19.604;2023-12-20T05:57:57;45.78;;;18.02;;
28627;SDS011;15815;46.760;19.604;2023-12-20T06:00:23;50.85;;;18.65;;
28627;SDS011;15815;46.760;19.604;2023-12-20T06:02:51;49.85;;;20.42;;
28627;SDS011;15815;46.760;19.604;2023-12-20T06:05:16;47.65;;;19.20;;
28627;SDS011;15815;46.760;19.604;2023-12-20T06:07:43;49.55;;;19.65;;
28627;SDS011;15815;46.760;19.604;2023-12-20T06:10:08;48.70;;;18.60;;
28627;SDS011;15815;46.760;19.604;2023-12-20T06:12:34;49.40;;;19.77;;
28627;SDS011;15815;46.760;19.604;2023-12-20T06:14:59;38.33;;;17.40;;
28627;SDS011;15815;46.760;19.604;2023-12-20T06:17:25;48.25;;;17.15;;
28627;SDS011;15815;46.760;19.604;2023-12-20T06:19:51;47.17;;;19.63;;
28627;SDS011;15815;46.760;19.604;2023-12-20T06:22:17;53.28;;;18.98;;
28627;SDS011;15815;46.760;19.604;2023-12-20T06:24:43;47.17;;;17.70;;
28627;SDS011;15815;46.760;19.604;2023-12-20T06:27:08;42.05;;;17.00;;
28627;SDS011;15815;46.760;19.604;2023-12-20T06:29:34;47.58;;;17.65;;
28627;SDS011;15815;46.760;19.604;2023-12-20T06:31:59;54.65;;;18.95;;
28627;SDS011;15815;46.760;19.604;2023-12-20T06:34:25;47.15;;;19.77;;
28627;SDS011;15815;46.760;19.604;2023-12-20T06:36:50;47.67;;;20.45;;
28627;SDS011;15815;46.760;19.604;2023-12-20T06:39:16;59.72;;;21.13;;
28627;SDS011;15815;46.760;19.604;2023-12-20T06:41:42;61.38;;;21.60;;
28627;SDS011;15815;46.760;19.604;2023-12-20T06:44:08;53.80;;;19.90;;
28627;SDS011;15815;46.760;19.604;2023-12-20T06:46:34;52.83;;;19.88;;
28627;SDS011;15815;46.760;19.604;2023-12-20T06:49:00;53.10;;;21.23;;
28627;SDS011;15815;46.760;19.604;2023-12-20T06:51:25;64.20;;;21.98;;
28627;SDS011;15815;46.760;19.604;2023-12-20T06:53:51;66.78;;;20.65;;
28627;SDS011;15815;46.760;19.604;2023-12-20T06:56:17;48.60;;;19.15;;
28627;SDS011;15815;46.760;19.604;2023-12-20T06:58:43;54.85;;;20.08;;
28627;SDS011;15815;46.760;19.604;2023-12-20T07:01:11;64.97;;;22.27;;
28627;SDS011;15815;46.760;19.604;2023-12-20T07:03:37;67.07;;;21.73;;
28627;SDS011;15815;46.760;19.604;2023-12-20T07:06:03;78.97;;;27.83;;
28627;SDS011;15815;46.760;19.604;2023-12-20T07:08:29;84.35;;;27.60;;
28627;SDS011;15815;46.760;19.604;2023-12-20T07:10:54;95.95;;;29.10;;
28627;SDS011;15815;46.760;19.604;2023-12-20T07:13:21;95.47;;;31.88;;
28627;SDS011;15815;46.760;19.604;2023-12-20T07:15:47;76.15;;;26.27;;
28627;SDS011;15815;46.760;19.604;2023-12-20T07:18:12;90.03;;;29.33;;
28627;SDS011;15815;46.760;19.604;2023-12-20T07:20:38;76.65;;;23.92;;
28627;SDS011;15815;46.760;19.604;2023-12-20T07:23:06;69.68;;;26.10;;
28627;SDS011;15815;46.760;19.604;2023-12-20T07:25:32;98.95;;;27.65;;
28627;SDS011;15815;46.760;19.604;2023-12-20T07:27:58;70.95;;;25.05;;
28627;SDS011;15815;46.760;19.604;2023-12-20T07:30:24;72.75;;;23.48;;
28627;SDS011;15815;46.760;19.604;2023-12-20T07:32:50;55.40;;;19.63;;
28627;SDS011;15815;46.760;19.604;2023-12-20T07:35:16;53.70;;;18.00;;
28627;SDS011;15815;46.760;19.604;2023-12-20T07:37:42;55.38;;;19.55;;
28627;SDS011;15815;46.760;19.604;2023-12-20T07:40:09;49.80;;;18.60;;
28627;SDS011;15815;46.760;19.604;2023-12-20T07:42:35;43.33;;;17.48;;
28627;SDS011;15815;46.760;19.604;2023-12-20T07:45:00;44.45;;;18.10;;
28627;SDS011;15815;46.760;19.604;2023-12-20T07:47:26;39.13;;;15.80;;
28627;SDS011;15815;46.760;19.604;2023-12-20T07:49:51;50.38;;;18.23;;
28627;SDS011;15815;46.760;19.604;2023-12-20T07:52:20;44.88;;;18.52;;
28627;SDS011;15815;46.760;19.604;2023-12-20T07:54:45;46.45;;;17.25;;
28627;SDS011;15815;46.760;19.604;2023-12-20T07:57:11;52.58;;;18.38;;
28627;SDS011;15815;46.760;19.604;2023-12-20T07:59:37;44.63;;;18.77;;
28627;SDS011;15815;46.760;19.604;2023-12-20T08:02:03;65.07;;;22.75;;
28627;SDS011;15815;46.760;19.604;2023-12-20T08:04:28;55.03;;;20.83;;
28627;SDS011;15815;46.760;19.604;2023-12-20T08:06:56;58.05;;;21.17;;
28627;SDS011;15815;46.760;19.604;2023-12-20T08:09:22;67.88;;;23.83;;
28627;SDS011;15815;46.760;19.604;2023-12-20T08:11:48;68.40;;;23.83;;
28627;SDS011;15815;46.760;19.604;2023-12-20T08:14:15;74.07;;;24.10;;
28627;SDS011;15815;46.760;19.604;2023-12-20T08:16:42;70.32;;;23.95;;
28627;SDS011;15815;46.760;19.604;2023-12-20T08:19:07;67.82;;;23.77;;
28627;SDS011;15815;46.760;19.604;2023-12-20T08:21:33;67.05;;;23.67;;
28627;SDS011;15815;46.760;19.604;2023-12-20T08:23:59;74.13;;;25.48;;
28627;SDS011;15815;46.760;19.604;2023-12-20T08:26:25;54.97;;;22.45;;
28627;SDS011;15815;46.760;19.604;2023-12-20T08:28:51;75.13;;;23.77;;
28627;SDS011;15815;46.760;19.604;2023-12-20T08:31:19;88.43;;;28.70;;
28627;SDS011;15815;46.760;19.604;2023-12-20T08:33:47;83.63;;;28.23;;
28627;SDS011;15815;46.760;19.604;2023-12-20T08:36:14;84.30;;;28.92;;
28627;SDS011;15815;46.760;19.604;2023-12-20T08:38:40;92.53;;;31.40;;
28627;SDS011;15815;46.760;19.604;2023-12-20T08:41:06;77.28;;;27.90;;
28627;SDS011;15815;46.760;19.604;2023-12-20T08:43:32;68.53;;;24.15;;
28627;SDS011;15815;46.760;19.604;2023-12-20T08:45:59;83.85;;;24.25;;
28627;SDS011;15815;46.760;19.604;2023-12-20T08:48:24;64.07;;;24.20;;
28627;SDS011;15815;46.760;19.604;2023-12-20T08:50:50;68.57;;;24.38;;
28627;SDS011;15815;46.760;19.604;2023-12-20T08:53:15;76.57;;;25.40;;
28627;SDS011;15815;46.760;19.604;2023-12-20T08:55:41;57.35;;;21.77;;
28627;SDS011;15815;46.760;19.604;2023-12-20T08:58:07;50.53;;;21.80;;
28627;SDS011;15815;46.760;19.604;2023-12-20T09:00:32;59.25;;;20.88;;
28627;SDS011;15815;46.760;19.604;2023-12-20T09:02:58;52.25;;;20.77;;
28627;SDS011;15815;46.760;19.604;2023-12-20T09:05:26;45.75;;;18.33;;
28627;SDS011;15815;46.760;19.604;2023-12-20T09:07:52;39.80;;;16.30;;
28627;SDS011;15815;46.760;19.604;2023-12-20T09:10:17;42.25;;;18.70;;
28627;SDS011;15815;46.760;19.604;2023-12-20T09:12:43;39.08;;;17.25;;
28627;SDS011;15815;46.760;19.604;2023-12-20T09:15:08;52.25;;;17.90;;
28627;SDS011;15815;46.760;19.604;2023-12-20T09:17:34;38.15;;;16.55;;
28627;SDS011;15815;46.760;19.604;2023-12-20T09:20:05;43.42;;;16.65;;
28627;SDS011;15815;46.760;19.604;2023-12-20T09:22:31;38.03;;;16.35;;
28627;SDS011;15815;46.760;19.604;2023-12-20T09:24:56;40.85;;;16.25;;
28627;SDS011;15815;46.760;19.604;2023-12-20T09:27:22;35.85;;;15.80;;
28627;SDS011;15815;46.760;19.604;2023-12-20T09:29:47;41.80;;;18.23;;
28627;SDS011;15815;46.760;19.604;2023-12-20T09:32:14;42.75;;;17.20;;
28627;SDS011;15815;46.760;19.604;2023-12-20T09:34:39;41.72;;;16.65;;
28627;SDS011;15815;46.760;19.604;2023-12-20T09:37:05;39.92;;;16.30;;
28627;SDS011;15815;46.760;19.604;2023-12-20T09:39:30;38.90;;;16.27;;
28627;SDS011;15815;46.760;19.604;2023-12-20T09:44:31;42.13;;;18.13;;
28627;SDS011;15815;46.760;19.604;2023-12-20T09:46:58;67.53;;;18.98;;
28627;SDS011;15815;46.760;19.604;2023-12-20T09:49:24;49.15;;;20.00;;
28627;SDS011;15815;46.760;19.604;2023-12-20T09:51:53;54.47;;;21.48;;
28627;SDS011;15815;46.760;19.604;2023-12-20T09:54:24;57.53;;;20.75;;
28627;SDS011;15815;46.760;19.604;2023-12-20T09:56:52;47.95;;;19.13;;
28627;SDS011;15815;46.760;19.604;2023-12-20T09:59:20;56.35;;;21.55;;
28627;SDS011;15815;46.760;19.604;2023-12-20T10:01:45;49.28;;;20.33;;
28627;SDS011;15815;46.760;19.604;2023-12-20T10:04:12;58.60;;;20.33;;
28627;SDS011;15815;46.760;19.604;2023-12-20T10:06:41;48.42;;;20.10;;
28627;SDS011;15815;46.760;19.604;2023-12-20T10:09:07;46.55;;;19.42;;
28627;SDS011;15815;46.760;19.604;2023-12-20T10:11:37;45.53;;;18.75;;
28627;SDS011;15815;46.760;19.604;2023-12-20T10:14:05;45.42;;;19.00;;
28627;SDS011;15815;46.760;19.604;2023-12-20T10:16:33;52.28;;;18.45;;
28627;SDS011;15815;46.760;19.604;2023-12-20T10:18:59;56.38;;;23.63;;
28627;SDS011;15815;46.760;19.604;2023-12-20T10:21:25;54.15;;;22.38;;
28627;SDS011;15815;46.760;19.604;2023-12-20T10:23:51;46.70;;;20.73;;
28627;SDS011;15815;46.760;19.604;2023-12-20T10:26:20;51.30;;;21.60;;
28627;SDS011;15815;46.760;19.604;2023-12-20T10:28:50;53.65;;;21.92;;
28627;SDS011;15815;46.760;19.604;2023-12-20T10:31:26;44.05;;;17.90;;
28627;SDS011;15815;46.760;19.604;2023-12-20T10:33:59;43.25;;;18.45;;
28627;SDS011;15815;46.760;19.604;2023-12-20T10:36:34;48.47;;;18.60;;
28627;SDS011;15815;46.760;19.604;2023-12-20T10:39:00;44.22;;;19.42;;
28627;SDS011;15815;46.760;19.604;2023-12-20T10:41:29;38.33;;;18.52;;
28627;SDS011;15815;46.760;19.604;2023-12-20T10:43:56;60.22;;;19.45;;
28627;SDS011;15815;46.760;19.604;2023-12-20T10:46:28;45.72;;;18.80;;
28627;SDS011;15815;46.760;19.604;2023-12-20T10:48:55;41.22;;;18.23;;
28627;SDS011;15815;46.760;19.604;2023-12-20T10:51:27;45.42;;;18.38;;
28627;SDS011;15815;46.760;19.604;2023-12-20T10:53:53;38.97;;;17.52;;
28627;SDS011;15815;46.760;19.604;2023-12-20T10:56:21;39.97;;;17.00;;
28627;SDS011;15815;46.760;19.604;2023-12-20T10:58:47;42.97;;;17.52;;
28627;SDS011;15815;46.760;19.604;2023-12-20T11:01:13;44.13;;;18.92;;
28627;SDS011;15815;46.760;19.604;2023-12-20T11:03:51;43.20;;;19.00;;
28627;SDS011;15815;46.760;19.604;2023-12-20T11:11:37;39.80;;;16.10;;
28627;SDS011;15815;46.760;19.604;2023-12-20T11:14:14;41.70;;;16.17;;
28627;SDS011;15815;46.760;19.604;2023-12-20T11:16:47;39.95;;;17.00;;
28627;SDS011;15815;46.760;19.604;2023-12-20T11:19:16;42.58;;;18.95;;
28627;SDS011;15815;46.760;19.604;2023-12-20T11:21:42;38.63;;;17.45;;
28627;SDS011;15815;46.760;19.604;2023-12-20T11:24:07;44.83;;;17.75;;
28627;SDS011;15815;46.760;19.604;2023-12-20T11:26:34;44.47;;;18.85;;
28627;SDS011;15815;46.760;19.604;2023-12-20T11:32:03;34.30;;;16.40;;
28627;SDS011;15815;46.760;19.604;2023-12-20T11:34:50;48.92;;;19.52;;
28627;SDS011;15815;46.760;19.604;2023-12-20T11:37:16;47.15;;;18.15;;
28627;SDS011;15815;46.760;19.604;2023-12-20T11:39:56;45.55;;;18.88;;
28627;SDS011;15815;46.760;19.604;2023-12-20T11:42:25;52.83;;;19.08;;
28627;SDS011;15815;46.760;19.604;2023-12-20T11:44:52;36.38;;;16.38;;
28627;SDS011;15815;46.760;19.604;2023-12-20T11:47:21;42.03;;;18.05;;
28627;SDS011;15815;46.760;19.604;2023-12-20T11:49:48;47.40;;;19.88;;
28627;SDS011;15815;46.760;19.604;2023-12-20T11:52:16;38.88;;;17.55;;
28627;SDS011;15815;46.760;19.604;2023-12-20T11:54:42;45.10;;;18.45;;
28627;SDS011;15815;46.760;19.604;2023-12-20T11:57:07;45.90;;;20.10;;
28627;SDS011;15815;46.760;19.604;2023-12-20T11:59:33;43.88;;;19.05;;
28627;SDS011;15815;46.760;19.604;2023-12-20T12:01:58;46.90;;;17.90;;
28627;SDS011;15815;46.760;19.604;2023-12-20T12:04:24;51.35;;;18.85;;
28627;SDS011;15815;46.760;19.604;2023-12-20T12:06:49;55.78;;;19.73;;
28627;SDS011;15815;46.760;19.604;2023-12-20T12:09:15;52.80;;;20.08;;
28627;SDS011;15815;46.760;19.604;2023-12-20T12:11:41;47.83;;;19.45;;
28627;SDS011;15815;46.760;19.604;2023-12-20T12:14:07;46.85;;;18.75;;
28627;SDS011;15815;46.760;19.604;2023-12-20T12:16:33;60.05;;;20.35;;
28627;SDS011;15815;46.760;19.604;2023-12-20T12:18:59;55.65;;;21.20;;
28627;SDS011;15815;46.760;19.604;2023-12-20T12:21:24;42.78;;;19.67;;
28627;SDS011;15815;46.760;19.604;2023-12-20T12:23:50;48.17;;;18.60;;
28627;SDS011;15815;46.760;19.604;2023-12-20T12:26:16;49.45;;;19.45;;
28627;SDS011;15815;46.760;19.604;2023-12-20T12:28:41;54.60;;;21.30;;
28627;SDS011;15815;46.760;19.604;2023-12-20T12:31:09;55.80;;;24.27;;
28627;SDS011;15815;46.760;19.604;2023-12-20T12:33:39;50.70;;;20.55;;
28627;SDS011;15815;46.760;19.604;2023-12-20T12:36:05;56.40;;;23.45;;
28627;SDS011;15815;46.760;19.604;2023-12-20T12:38:32;47.53;;;21.27;;
28627;SDS011;15815;46.760;19.604;2023-12-20T12:40:59;46.47;;;20.85;;
28627;SDS011;15815;46.760;19.604;2023-12-20T12:43:25;42.92;;;19.48;;
28627;SDS011;15815;46.760;19.604;2023-12-20T12:45:55;45.17;;;21.02;;
28627;SDS011;15815;46.760;19.604;2023-12-20T12:48:21;43.88;;;19.27;;
28627;SDS011;15815;46.760;19.604;2023-12-20T12:50:46;45.67;;;19.52;;
28627;SDS011;15815;46.760;19.604;2023-12-20T12:53:14;39.38;;;18.80;;
28627;SDS011;15815;46.760;19.604;2023-12-20T12:55:41;44.55;;;19.52;;
28627;SDS011;15815;46.760;19.604;2023-12-20T12:58:07;54.55;;;23.67;;
28627;SDS011;15815;46.760;19.604;2023-12-20T13:00:33;65.50;;;28.63;;
28627;SDS011;15815;46.760;19.604;2023-12-20T13:03:02;68.93;;;26.45;;
28627;SDS011;15815;46.760;19.604;2023-12-20T13:05:28;52.75;;;21.95;;
28627;SDS011;15815;46.760;19.604;2023-12-20T13:07:55;56.17;;;23.75;;
28627;SDS011;15815;46.760;19.604;2023-12-20T13:10:21;48.78;;;20.67;;
28627;SDS011;15815;46.760;19.604;2023-12-20T13:12:49;57.53;;;24.52;;
28627;SDS011;15815;46.760;19.604;2023-12-20T13:15:15;52.30;;;21.52;;
28627;SDS011;15815;46.760;19.604;2023-12-20T13:17:40;50.35;;;19.35;;
28627;SDS011;15815;46.760;19.604;2023-12-20T13:20:06;47.10;;;22.17;;
28627;SDS011;15815;46.760;19.604;2023-12-20T13:22:32;56.05;;;22.73;;
28627;SDS011;15815;46.760;19.604;2023-12-20T13:24:57;50.40;;;23.10;;
28627;SDS011;15815;46.760;19.604;2023-12-20T13:27:23;66.22;;;25.85;;
28627;SDS011;15815;46.760;19.604;2023-12-20T13:29:48;82.88;;;25.70;;
28627;SDS011;15815;46.760;19.604;2023-12-20T13:32:15;90.70;;;24.48;;
28627;SDS011;15815;46.760;19.604;2023-12-20T13:34:40;85.40;;;23.17;;
28627;SDS011;15815;46.760;19.604;2023-12-20T13:37:06;78.70;;;25.83;;
28627;SDS011;15815;46.760;19.604;2023-12-20T13:39:31;78.82;;;24.77;;
28627;SDS011;15815;46.760;19.604;2023-12-20T13:41:57;72.47;;;26.05;;
28627;SDS011;15815;46.760;19.604;2023-12-20T13:44:22;88.85;;;26.92;;
28627;SDS011;15815;46.760;19.604;2023-12-20T13:46:48;85.07;;;29.48;;
28627;SDS011;15815;46.760;19.604;2023-12-20T13:49:13;67.50;;;24.50;;
28627;SDS011;15815;46.760;19.604;2023-12-20T13:51:38;70.13;;;25.33;;
28627;SDS011;15815;46.760;19.604;2023-12-20T13:54:04;74.68;;;25.65;;
28627;SDS011;15815;46.760;19.604;2023-12-20T13:56:29;65.47;;;28.30;;
28627;SDS011;15815;46.760;19.604;2023-12-20T13:58:55;73.00;;;28.27;;
28627;SDS011;15815;46.760;19.604;2023-12-20T14:01:20;61.72;;;26.23;;
28627;SDS011;15815;46.760;19.604;2023-12-20T14:03:46;67.15;;;26.80;;
28627;SDS011;15815;46.760;19.604;2023-12-20T14:06:12;60.10;;;25.77;;
28627;SDS011;15815;46.760;19.604;2023-12-20T14:08:37;57.15;;;24.13;;
28627;SDS011;15815;46.760;19.604;2023-12-20T14:11:03;59.28;;;23.65;;
28627;SDS011;15815;46.760;19.604;2023-12-20T14:13:31;53.97;;;21.80;;